sensor_id;sensor_type;location;lat;lon;timestamp;temperature;humidity
11836;DHT22;5977;51.972;7.640;2023-11-21T00:00:03;18.40;90.40
11836;DHT22;5977;51.972;7.640;2023-11-21T00:02:40;18.40;90.40
11836;DHT22;5977;51.972;7.640;2023-11-21T00:05:08;18.40;90.40
11836;DHT22;5977;51.972;7.640;2023-11-21T00:07:37;18.40;90.40
11836;DHT22;5977;51.972;7.640;2023-11-21T00:10:06;18.40;90.40
11836;DHT22;5977;51.972;7.640;2023-11-21T00:12:35;18.40;90.40
11836;DHT22;5977;51.972;7.640;2023-11-21T00:15:03;18.40;90.40
11836;DHT22;5977;51.972;7.640;2023-11-21T00:17:32;18.40;90.40
11836;DHT22;5977;51.972;7.640;2023-11-21T00:20:02;18.40;90.40
11836;DHT22;5977;51.972;7.640;2023-11-21T00:22:33;18.40;90.40
11836;DHT22;5977;51.972;7.640;2023-11-21T00:25:02;18.40;90.40
11836;DHT22;5977;51.972;7.640;2023-11-21T00:27:30;18.40;90.40
11836;DHT22;5977;51.972;7.640;2023-11-21T00:29:58;18.40;90.40
11836;DHT22;5977;51.972;7.640;2023-11-21T00:32:26;18.40;90.40
11836;DHT22;5977;51.972;7.640;2023-11-21T00:34:54;18.40;90.40
11836;DHT22;5977;51.972;7.640;2023-11-21T00:37:23;18.40;90.40
11836;DHT22;5977;51.972;7.640;2023-11-21T00:39:51;18.40;90.40
11836;DHT22;5977;51.972;7.640;2023-11-21T00:42:19;18.40;90.40
11836;DHT22;5977;51.972;7.640;2023-11-21T00:44:48;18.40;90.40
11836;DHT22;5977;51.972;7.640;2023-11-21T00:47:16;18.40;90.40
11836;DHT22;5977;51.972;7.640;2023-11-21T00:49:44;18.40;90.40
11836;DHT22;5977;51.972;7.640;2023-11-21T00:52:12;18.40;90.40
11836;DHT22;5977;51.972;7.640;2023-11-21T00:54:41;18.40;90.40
11836;DHT22;5977;51.972;7.640;2023-11-21T00:57:09;18.40;90.30
11836;DHT22;5977;51.972;7.640;2023-11-21T00:59:38;18.40;90.40
11836;DHT22;5977;51.972;7.640;2023-11-21T01:02:06;18.40;90.40
11836;DHT22;5977;51.972;7.640;2023-11-21T01:04:37;18.40;90.40
11836;DHT22;5977;51.972;7.640;2023-11-21T01:07:05;18.40;90.30
11836;DHT22;5977;51.972;7.640;2023-11-21T01:09:33;18.40;90.30
11836;DHT22;5977;51.972;7.640;2023-11-21T01:12:03;18.40;90.40
11836;DHT22;5977;51.972;7.640;2023-11-21T01:14:31;18.40;90.30
11836;DHT22;5977;51.972;7.640;2023-11-21T01:16:59;18.40;90.30
11836;DHT22;5977;51.972;7.640;2023-11-21T01:19:27;18.40;90.30
11836;DHT22;5977;51.972;7.640;2023-11-21T01:21:56;18.40;90.30
11836;DHT22;5977;51.972;7.640;2023-11-21T01:24:24;18.40;90.30
11836;DHT22;5977;51.972;7.640;2023-11-21T01:26:52;18.40;90.30
11836;DHT22;5977;51.972;7.640;2023-11-21T01:29:21;18.40;90.30
11836;DHT22;5977;51.972;7.640;2023-11-21T01:31:49;18.40;90.30
11836;DHT22;5977;51.972;7.640;2023-11-21T01:34:18;18.40;90.30
11836;DHT22;5977;51.972;7.640;2023-11-21T01:36:47;18.40;90.30
11836;DHT22;5977;51.972;7.640;2023-11-21T01:39:15;18.40;90.30
11836;DHT22;5977;51.972;7.640;2023-11-21T01:41:50;18.40;90.30
11836;DHT22;5977;51.972;7.640;2023-11-21T01:44:18;18.40;90.30
11836;DHT22;5977;51.972;7.640;2023-11-21T01:46:48;18.40;90.30
11836;DHT22;5977;51.972;7.640;2023-11-21T01:49:17;18.40;90.30
11836;DHT22;5977;51.972;7.640;2023-11-21T01:51:47;18.40;90.30
11836;DHT22;5977;51.972;7.640;2023-11-21T01:54:16;18.40;90.30
11836;DHT22;5977;51.972;7.640;2023-11-21T01:56:46;18.40;90.30
11836;DHT22;5977;51.972;7.640;2023-11-21T01:59:18;18.40;90.30
11836;DHT22;5977;51.972;7.640;2023-11-21T02:01:48;18.40;90.30
11836;DHT22;5977;51.972;7.640;2023-11-21T02:04:18;18.40;90.30
11836;DHT22;5977;51.972;7.640;2023-11-21T02:06:48;18.40;90.40
11836;DHT22;5977;51.972;7.640;2023-11-21T02:09:24;18.40;90.40
11836;DHT22;5977;51.972;7.640;2023-11-21T02:11:54;18.40;90.30
11836;DHT22;5977;51.972;7.640;2023-11-21T02:14:24;18.40;90.40
11836;DHT22;5977;51.972;7.640;2023-11-21T02:16:55;18.40;90.40
11836;DHT22;5977;51.972;7.640;2023-11-21T02:19:23;18.40;90.30
11836;DHT22;5977;51.972;7.640;2023-11-21T02:21:52;18.40;90.40
11836;DHT22;5977;51.972;7.640;2023-11-21T02:24:23;18.40;90.40
11836;DHT22;5977;51.972;7.640;2023-11-21T02:26:51;18.40;90.40
11836;DHT22;5977;51.972;7.640;2023-11-21T02:29:20;18.40;90.40
11836;DHT22;5977;51.972;7.640;2023-11-21T02:31:51;18.40;90.40
11836;DHT22;5977;51.972;7.640;2023-11-21T02:34:22;18.40;90.40
11836;DHT22;5977;51.972;7.640;2023-11-21T02:36:50;18.40;90.40
11836;DHT22;5977;51.972;7.640;2023-11-21T02:39:19;18.40;90.70
11836;DHT22;5977;51.972;7.640;2023-11-21T02:41:50;18.40;90.40
11836;DHT22;5977;51.972;7.640;2023-11-21T02:44:19;18.40;90.30
11836;DHT22;5977;51.972;7.640;2023-11-21T02:46:47;18.40;90.40
11836;DHT22;5977;51.972;7.640;2023-11-21T02:49:15;18.40;90.40
11836;DHT22;5977;51.972;7.640;2023-11-21T02:51:43;18.40;90.40
11836;DHT22;5977;51.972;7.640;2023-11-21T02:54:11;18.40;90.40
11836;DHT22;5977;51.972;7.640;2023-11-21T02:56:39;18.40;90.40
11836;DHT22;5977;51.972;7.640;2023-11-21T02:59:09;18.40;90.40
11836;DHT22;5977;51.972;7.640;2023-11-21T03:01:37;18.40;90.40
11836;DHT22;5977;51.972;7.640;2023-11-21T03:04:05;18.30;90.40
11836;DHT22;5977;51.972;7.640;2023-11-21T03:06:33;18.40;90.40
11836;DHT22;5977;51.972;7.640;2023-11-21T03:09:02;18.40;90.40
11836;DHT22;5977;51.972;7.640;2023-11-21T03:11:30;18.40;90.40
11836;DHT22;5977;51.972;7.640;2023-11-21T03:13:59;18.40;90.40
11836;DHT22;5977;51.972;7.640;2023-11-21T03:16:28;18.40;90.40
11836;DHT22;5977;51.972;7.640;2023-11-21T03:18:56;18.40;90.30
11836;DHT22;5977;51.972;7.640;2023-11-21T03:21:25;18.40;90.40
11836;DHT22;5977;51.972;7.640;2023-11-21T03:23:53;18.40;90.40
11836;DHT22;5977;51.972;7.640;2023-11-21T03:26:21;18.40;90.40
11836;DHT22;5977;51.972;7.640;2023-11-21T03:28:50;18.40;90.40
11836;DHT22;5977;51.972;7.640;2023-11-21T03:31:20;18.40;90.40
11836;DHT22;5977;51.972;7.640;2023-11-21T03:33:49;18.40;90.40
11836;DHT22;5977;51.972;7.640;2023-11-21T03:36:17;18.40;90.30
11836;DHT22;5977;51.972;7.640;2023-11-21T03:38:48;18.40;90.40
11836;DHT22;5977;51.972;7.640;2023-11-21T03:41:16;18.40;90.40
11836;DHT22;5977;51.972;7.640;2023-11-21T03:43:44;18.40;90.40
11836;DHT22;5977;51.972;7.640;2023-11-21T03:46:13;18.40;90.40
11836;DHT22;5977;51.972;7.640;2023-11-21T03:48:42;18.40;90.40
11836;DHT22;5977;51.972;7.640;2023-11-21T03:51:11;18.40;90.40
11836;DHT22;5977;51.972;7.640;2023-11-21T03:53:39;18.40;90.40
11836;DHT22;5977;51.972;7.640;2023-11-21T03:56:09;18.40;90.40
11836;DHT22;5977;51.972;7.640;2023-11-21T03:58:39;18.40;90.40
11836;DHT22;5977;51.972;7.640;2023-11-21T04:01:06;18.40;90.40
11836;DHT22;5977;51.972;7.640;2023-11-21T04:03:34;18.40;90.40
11836;DHT22;5977;51.972;7.640;2023-11-21T04:06:03;18.40;90.40
11836;DHT22;5977;51.972;7.640;2023-11-21T04:08:34;18.40;90.40
11836;DHT22;5977;51.972;7.640;2023-11-21T04:11:02;18.40;90.40
11836;DHT22;5977;51.972;7.640;2023-11-21T04:13:30;18.40;90.40
11836;DHT22;5977;51.972;7.640;2023-11-21T04:15:58;18.40;90.50
11836;DHT22;5977;51.972;7.640;2023-11-21T04:18:29;18.40;90.40
11836;DHT22;5977;51.972;7.640;2023-11-21T04:20:57;18.40;90.40
11836;DHT22;5977;51.972;7.640;2023-11-21T04:23:26;18.40;90.40
11836;DHT22;5977;51.972;7.640;2023-11-21T04:25:55;18.40;90.80
11836;DHT22;5977;51.972;7.640;2023-11-21T04:28:23;18.40;90.40
11836;DHT22;5977;51.972;7.640;2023-11-21T04:30:52;18.40;90.50
11836;DHT22;5977;51.972;7.640;2023-11-21T04:33:19;18.30;90.50
11836;DHT22;5977;51.972;7.640;2023-11-21T04:35:48;18.40;90.50
11836;DHT22;5977;51.972;7.640;2023-11-21T04:38:16;18.30;90.50
11836;DHT22;5977;51.972;7.640;2023-11-21T04:40:44;18.30;90.50
11836;DHT22;5977;51.972;7.640;2023-11-21T04:43:13;18.30;90.40
11836;DHT22;5977;51.972;7.640;2023-11-21T04:45:41;18.30;90.40
11836;DHT22;5977;51.972;7.640;2023-11-21T04:48:09;18.40;90.50
11836;DHT22;5977;51.972;7.640;2023-11-21T04:50:37;18.40;90.50
11836;DHT22;5977;51.972;7.640;2023-11-21T04:53:05;18.40;90.50
11836;DHT22;5977;51.972;7.640;2023-11-21T04:55:33;18.40;90.50
11836;DHT22;5977;51.972;7.640;2023-11-21T04:58:01;18.40;90.50
11836;DHT22;5977;51.972;7.640;2023-11-21T05:00:32;18.40;90.50
11836;DHT22;5977;51.972;7.640;2023-11-21T05:03:00;18.40;90.50
11836;DHT22;5977;51.972;7.640;2023-11-21T05:05:29;18.40;90.50
11836;DHT22;5977;51.972;7.640;2023-11-21T05:07:57;18.40;90.50
11836;DHT22;5977;51.972;7.640;2023-11-21T05:10:25;18.40;90.50
11836;DHT22;5977;51.972;7.640;2023-11-21T05:12:53;18.40;90.50
11836;DHT22;5977;51.972;7.640;2023-11-21T05:15:22;18.40;90.50
11836;DHT22;5977;51.972;7.640;2023-11-21T05:17:51;18.40;90.50
11836;DHT22;5977;51.972;7.640;2023-11-21T05:20:20;18.40;90.40
11836;DHT22;5977;51.972;7.640;2023-11-21T05:22:48;18.40;90.40
11836;DHT22;5977;51.972;7.640;2023-11-21T05:25:16;18.40;90.50
11836;DHT22;5977;51.972;7.640;2023-11-21T05:27:45;18.40;90.50
11836;DHT22;5977;51.972;7.640;2023-11-21T05:30:13;18.40;90.40
11836;DHT22;5977;51.972;7.640;2023-11-21T05:32:41;18.40;90.40
11836;DHT22;5977;51.972;7.640;2023-11-21T05:35:11;18.40;90.40
11836;DHT22;5977;51.972;7.640;2023-11-21T05:37:42;18.40;90.40
11836;DHT22;5977;51.972;7.640;2023-11-21T05:40:11;18.40;90.70
11836;DHT22;5977;51.972;7.640;2023-11-21T05:42:39;18.40;90.40
11836;DHT22;5977;51.972;7.640;2023-11-21T05:45:08;18.40;90.40
11836;DHT22;5977;51.972;7.640;2023-11-21T05:47:38;18.40;90.40
11836;DHT22;5977;51.972;7.640;2023-11-21T05:50:08;18.40;90.40
11836;DHT22;5977;51.972;7.640;2023-11-21T05:52:44;18.40;90.70
11836;DHT22;5977;51.972;7.640;2023-11-21T05:55:12;18.40;90.30
11836;DHT22;5977;51.972;7.640;2023-11-21T05:57:41;18.40;90.30
11836;DHT22;5977;51.972;7.640;2023-11-21T06:00:11;18.40;90.30
11836;DHT22;5977;51.972;7.640;2023-11-21T06:02:42;18.40;90.30
11836;DHT22;5977;51.972;7.640;2023-11-21T06:05:10;18.40;90.30
11836;DHT22;5977;51.972;7.640;2023-11-21T06:07:38;18.40;90.30
11836;DHT22;5977;51.972;7.640;2023-11-21T06:10:11;18.50;90.30
11836;DHT22;5977;51.972;7.640;2023-11-21T06:12:41;18.40;90.20
11836;DHT22;5977;51.972;7.640;2023-11-21T06:15:10;18.40;90.30
11836;DHT22;5977;51.972;7.640;2023-11-21T06:17:40;18.40;90.30
11836;DHT22;5977;51.972;7.640;2023-11-21T06:20:10;18.40;90.30
11836;DHT22;5977;51.972;7.640;2023-11-21T06:22:42;18.40;90.30
11836;DHT22;5977;51.972;7.640;2023-11-21T06:25:12;18.50;90.30
11836;DHT22;5977;51.972;7.640;2023-11-21T06:27:42;18.40;90.30
11836;DHT22;5977;51.972;7.640;2023-11-21T06:30:12;18.50;90.30
11836;DHT22;5977;51.972;7.640;2023-11-21T06:32:41;18.40;90.30
11836;DHT22;5977;51.972;7.640;2023-11-21T06:35:12;18.40;90.30
11836;DHT22;5977;51.972;7.640;2023-11-21T06:37:42;18.50;90.30
11836;DHT22;5977;51.972;7.640;2023-11-21T06:40:15;18.50;90.30
11836;DHT22;5977;51.972;7.640;2023-11-21T06:42:45;18.50;90.30
11836;DHT22;5977;51.972;7.640;2023-11-21T06:45:13;18.50;90.40
11836;DHT22;5977;51.972;7.640;2023-11-21T06:47:42;18.40;90.30
11836;DHT22;5977;51.972;7.640;2023-11-21T06:50:10;18.40;90.30
11836;DHT22;5977;51.972;7.640;2023-11-21T06:52:38;18.50;90.30
11836;DHT22;5977;51.972;7.640;2023-11-21T06:55:07;18.40;90.30
11836;DHT22;5977;51.972;7.640;2023-11-21T06:57:37;18.40;90.30
11836;DHT22;5977;51.972;7.640;2023-11-21T07:00:06;18.40;90.30
11836;DHT22;5977;51.972;7.640;2023-11-21T07:02:36;18.40;90.30
11836;DHT22;5977;51.972;7.640;2023-11-21T07:05:04;18.40;90.30
11836;DHT22;5977;51.972;7.640;2023-11-21T07:07:32;18.40;90.30
11836;DHT22;5977;51.972;7.640;2023-11-21T07:10:02;18.40;90.30
11836;DHT22;5977;51.972;7.640;2023-11-21T07:12:30;18.40;90.30
11836;DHT22;5977;51.972;7.640;2023-11-21T07:15:00;18.40;90.30
11836;DHT22;5977;51.972;7.640;2023-11-21T07:17:29;18.40;90.30
11836;DHT22;5977;51.972;7.640;2023-11-21T07:19:58;18.40;90.30
11836;DHT22;5977;51.972;7.640;2023-11-21T07:22:26;18.40;90.30
11836;DHT22;5977;51.972;7.640;2023-11-21T07:24:54;18.40;90.60
11836;DHT22;5977;51.972;7.640;2023-11-21T07:27:23;18.40;90.30
11836;DHT22;5977;51.972;7.640;2023-11-21T07:29:51;18.40;90.30
11836;DHT22;5977;51.972;7.640;2023-11-21T08:03:39;18.40;90.20
11836;DHT22;5977;51.972;7.640;2023-11-21T08:06:08;18.40;90.20
11836;DHT22;5977;51.972;7.640;2023-11-21T08:08:36;18.50;90.30
11836;DHT22;5977;51.972;7.640;2023-11-21T08:11:04;18.50;90.20
11836;DHT22;5977;51.972;7.640;2023-11-21T08:13:34;18.50;90.20
11836;DHT22;5977;51.972;7.640;2023-11-21T08:16:03;18.50;90.20
11836;DHT22;5977;51.972;7.640;2023-11-21T08:18:32;18.50;90.10
11836;DHT22;5977;51.972;7.640;2023-11-21T08:21:02;18.50;90.10
11836;DHT22;5977;51.972;7.640;2023-11-21T08:23:31;18.50;90.10
11836;DHT22;5977;51.972;7.640;2023-11-21T08:25:58;18.50;90.40
11836;DHT22;5977;51.972;7.640;2023-11-21T08:28:29;18.50;90.10
11836;DHT22;5977;51.972;7.640;2023-11-21T08:30:57;18.50;90.10
11836;DHT22;5977;51.972;7.640;2023-11-21T08:33:25;18.50;90.40
11836;DHT22;5977;51.972;7.640;2023-11-21T08:35:53;18.50;90.10
11836;DHT22;5977;51.972;7.640;2023-11-21T08:38:23;18.50;90.10
11836;DHT22;5977;51.972;7.640;2023-11-21T08:40:51;18.50;90.10
11836;DHT22;5977;51.972;7.640;2023-11-21T08:43:18;18.50;90.10
11836;DHT22;5977;51.972;7.640;2023-11-21T08:45:47;18.50;90.10
11836;DHT22;5977;51.972;7.640;2023-11-21T08:48:15;18.50;90.10
11836;DHT22;5977;51.972;7.640;2023-11-21T08:50:42;18.50;90.10
11836;DHT22;5977;51.972;7.640;2023-11-21T08:53:10;18.50;90.10
11836;DHT22;5977;51.972;7.640;2023-11-21T08:55:40;18.50;90.10
11836;DHT22;5977;51.972;7.640;2023-11-21T08:58:08;18.50;90.10
11836;DHT22;5977;51.972;7.640;2023-11-21T09:00:35;18.50;90.10
11836;DHT22;5977;51.972;7.640;2023-11-21T09:03:04;18.50;90.10
11836;DHT22;5977;51.972;7.640;2023-11-21T09:05:37;18.50;90.10
11836;DHT22;5977;51.972;7.640;2023-11-21T09:08:06;18.50;90.00
11836;DHT22;5977;51.972;7.640;2023-11-21T09:10:34;18.50;90.10
11836;DHT22;5977;51.972;7.640;2023-11-21T09:13:05;18.50;90.10
11836;DHT22;5977;51.972;7.640;2023-11-21T09:15:36;18.50;90.00
11836;DHT22;5977;51.972;7.640;2023-11-21T09:18:04;18.50;90.10
11836;DHT22;5977;51.972;7.640;2023-11-21T09:20:32;18.50;90.10
11836;DHT22;5977;51.972;7.640;2023-11-21T09:23:00;18.50;90.10
11836;DHT22;5977;51.972;7.640;2023-11-21T09:25:28;18.50;90.10
11836;DHT22;5977;51.972;7.640;2023-11-21T09:27:56;18.50;90.10
11836;DHT22;5977;51.972;7.640;2023-11-21T09:30:26;18.50;90.00
11836;DHT22;5977;51.972;7.640;2023-11-21T09:32:54;18.50;90.00
11836;DHT22;5977;51.972;7.640;2023-11-21T09:35:21;18.50;90.00
11836;DHT22;5977;51.972;7.640;2023-11-21T09:37:50;18.50;90.10
11836;DHT22;5977;51.972;7.640;2023-11-21T09:40:21;18.50;90.10
11836;DHT22;5977;51.972;7.640;2023-11-21T09:42:54;18.50;90.00
11836;DHT22;5977;51.972;7.640;2023-11-21T09:45:26;18.60;90.10
11836;DHT22;5977;51.972;7.640;2023-11-21T09:47:56;18.50;90.20
11836;DHT22;5977;51.972;7.640;2023-11-21T09:50:25;18.50;90.20
11836;DHT22;5977;51.972;7.640;2023-11-21T09:53:06;18.60;90.20
11836;DHT22;5977;51.972;7.640;2023-11-21T09:55:39;18.50;90.10
11836;DHT22;5977;51.972;7.640;2023-11-21T09:58:11;18.50;90.20
11836;DHT22;5977;51.972;7.640;2023-11-21T10:00:44;18.50;90.20
11836;DHT22;5977;51.972;7.640;2023-11-21T10:03:13;18.50;90.20
11836;DHT22;5977;51.972;7.640;2023-11-21T10:05:43;18.60;90.30
11836;DHT22;5977;51.972;7.640;2023-11-21T10:08:12;18.50;90.30
11836;DHT22;5977;51.972;7.640;2023-11-21T10:10:44;18.50;90.30
11836;DHT22;5977;51.972;7.640;2023-11-21T10:13:13;18.60;90.30
11836;DHT22;5977;51.972;7.640;2023-11-21T10:15:44;18.60;90.30
11836;DHT22;5977;51.972;7.640;2023-11-21T10:18:17;18.50;90.30
11836;DHT22;5977;51.972;7.640;2023-11-21T10:20:45;18.50;90.30
11836;DHT22;5977;51.972;7.640;2023-11-21T10:23:19;18.50;90.20
11836;DHT22;5977;51.972;7.640;2023-11-21T10:25:47;18.60;90.30
11836;DHT22;5977;51.972;7.640;2023-11-21T10:28:16;18.50;90.20
11836;DHT22;5977;51.972;7.640;2023-11-21T10:30:45;18.60;90.30
11836;DHT22;5977;51.972;7.640;2023-11-21T10:33:13;18.50;90.20
11836;DHT22;5977;51.972;7.640;2023-11-21T10:35:45;18.50;90.30
11836;DHT22;5977;51.972;7.640;2023-11-21T10:38:17;18.60;90.20
11836;DHT22;5977;51.972;7.640;2023-11-21T10:40:47;18.50;90.30
11836;DHT22;5977;51.972;7.640;2023-11-21T10:43:17;18.60;90.30
11836;DHT22;5977;51.972;7.640;2023-11-21T10:45:47;18.50;90.30
11836;DHT22;5977;51.972;7.640;2023-11-21T10:48:15;18.60;90.30
11836;DHT22;5977;51.972;7.640;2023-11-21T10:50:45;18.50;90.30
11836;DHT22;5977;51.972;7.640;2023-11-21T10:53:12;18.50;90.30
11836;DHT22;5977;51.972;7.640;2023-11-21T10:55:42;18.50;90.30
11836;DHT22;5977;51.972;7.640;2023-11-21T10:58:13;18.50;90.30
11836;DHT22;5977;51.972;7.640;2023-11-21T11:00:42;18.50;90.30
11836;DHT22;5977;51.972;7.640;2023-11-21T11:03:14;18.50;90.40
11836;DHT22;5977;51.972;7.640;2023-11-21T11:05:44;18.50;90.40
11836;DHT22;5977;51.972;7.640;2023-11-21T11:08:19;18.50;90.30
11836;DHT22;5977;51.972;7.640;2023-11-21T11:10:53;18.50;90.20
11836;DHT22;5977;51.972;7.640;2023-11-21T11:13:22;18.50;90.30
11836;DHT22;5977;51.972;7.640;2023-11-21T11:15:51;18.50;90.30
11836;DHT22;5977;51.972;7.640;2023-11-21T11:18:23;18.50;90.20
11836;DHT22;5977;51.972;7.640;2023-11-21T11:20:53;18.50;90.20
11836;DHT22;5977;51.972;7.640;2023-11-21T11:23:33;18.50;90.20
11836;DHT22;5977;51.972;7.640;2023-11-21T11:26:12;18.50;90.10
11836;DHT22;5977;51.972;7.640;2023-11-21T11:29:01;18.50;90.10
11836;DHT22;5977;51.972;7.640;2023-11-21T11:31:55;18.50;90.10
11836;DHT22;5977;51.972;7.640;2023-11-21T11:34:34;18.50;90.10
11836;DHT22;5977;51.972;7.640;2023-11-21T11:37:06;18.50;90.10
11836;DHT22;5977;51.972;7.640;2023-11-21T11:39:35;18.40;90.10
11836;DHT22;5977;51.972;7.640;2023-11-21T11:42:06;18.40;90.10
11836;DHT22;5977;51.972;7.640;2023-11-21T11:44:56;18.40;90.10
11836;DHT22;5977;51.972;7.640;2023-11-21T11:47:26;18.40;90.10
11836;DHT22;5977;51.972;7.640;2023-11-21T11:50:03;18.50;90.20
11836;DHT22;5977;51.972;7.640;2023-11-21T11:52:37;18.40;90.20
11836;DHT22;5977;51.972;7.640;2023-11-21T11:55:07;18.40;90.20
11836;DHT22;5977;51.972;7.640;2023-11-21T11:57:38;18.50;90.30
11836;DHT22;5977;51.972;7.640;2023-11-21T12:00:14;18.40;90.30
11836;DHT22;5977;51.972;7.640;2023-11-21T12:02:48;18.40;90.30
11836;DHT22;5977;51.972;7.640;2023-11-21T12:05:18;18.50;90.40
11836;DHT22;5977;51.972;7.640;2023-11-21T12:07:47;18.50;90.40
11836;DHT22;5977;51.972;7.640;2023-11-21T12:10:17;18.50;90.30
11836;DHT22;5977;51.972;7.640;2023-11-21T12:12:47;18.50;90.30
11836;DHT22;5977;51.972;7.640;2023-11-21T12:15:15;18.50;90.30
11836;DHT22;5977;51.972;7.640;2023-11-21T12:17:44;18.50;90.30
11836;DHT22;5977;51.972;7.640;2023-11-21T12:20:13;18.60;90.30
11836;DHT22;5977;51.972;7.640;2023-11-21T12:22:47;18.50;90.40
11836;DHT22;5977;51.972;7.640;2023-11-21T12:25:16;18.50;90.40
11836;DHT22;5977;51.972;7.640;2023-11-21T12:27:46;18.50;90.40
11836;DHT22;5977;51.972;7.640;2023-11-21T12:30:17;18.50;90.40
11836;DHT22;5977;51.972;7.640;2023-11-21T12:32:48;18.50;90.50
11836;DHT22;5977;51.972;7.640;2023-11-21T12:35:18;18.50;90.50
11836;DHT22;5977;51.972;7.640;2023-11-21T12:37:48;18.50;90.50
11836;DHT22;5977;51.972;7.640;2023-11-21T12:40:16;18.50;90.50
11836;DHT22;5977;51.972;7.640;2023-11-21T12:42:45;18.50;90.60
11836;DHT22;5977;51.972;7.640;2023-11-21T12:45:22;18.50;90.60
11836;DHT22;5977;51.972;7.640;2023-11-21T12:47:55;18.50;90.60
11836;DHT22;5977;51.972;7.640;2023-11-21T12:50:25;18.50;90.60
11836;DHT22;5977;51.972;7.640;2023-11-21T12:53:00;18.50;90.50
11836;DHT22;5977;51.972;7.640;2023-11-21T12:55:30;18.50;90.40
11836;DHT22;5977;51.972;7.640;2023-11-21T12:58:01;18.50;90.40
11836;DHT22;5977;51.972;7.640;2023-11-21T13:00:38;18.50;90.40
11836;DHT22;5977;51.972;7.640;2023-11-21T13:03:07;18.50;90.40
11836;DHT22;5977;51.972;7.640;2023-11-21T13:05:38;18.50;90.50
11836;DHT22;5977;51.972;7.640;2023-11-21T13:08:08;18.50;90.50
11836;DHT22;5977;51.972;7.640;2023-11-21T13:10:40;18.50;90.50
11836;DHT22;5977;51.972;7.640;2023-11-21T13:13:11;18.50;90.60
11836;DHT22;5977;51.972;7.640;2023-11-21T13:15:50;18.50;90.60
11836;DHT22;5977;51.972;7.640;2023-11-21T13:18:19;18.50;90.70
11836;DHT22;5977;51.972;7.640;2023-11-21T13:20:48;18.50;90.80
11836;DHT22;5977;51.972;7.640;2023-11-21T13:23:18;18.50;90.80
11836;DHT22;5977;51.972;7.640;2023-11-21T13:25:46;18.50;90.70
11836;DHT22;5977;51.972;7.640;2023-11-21T13:28:27;18.50;90.80
11836;DHT22;5977;51.972;7.640;2023-11-21T13:30:59;18.60;91.40
11836;DHT22;5977;51.972;7.640;2023-11-21T13:33:36;18.60;91.20
11836;DHT22;5977;51.972;7.640;2023-11-21T13:36:06;18.70;91.50
11836;DHT22;5977;51.972;7.640;2023-11-21T13:38:38;18.60;91.30
11836;DHT22;5977;51.972;7.640;2023-11-21T13:41:09;18.60;91.20
11836;DHT22;5977;51.972;7.640;2023-11-21T13:43:39;18.60;91.20
11836;DHT22;5977;51.972;7.640;2023-11-21T13:46:10;18.60;91.10
11836;DHT22;5977;51.972;7.640;2023-11-21T13:48:42;18.60;91.10
11836;DHT22;5977;51.972;7.640;2023-11-21T13:51:17;18.60;91.00
11836;DHT22;5977;51.972;7.640;2023-11-21T13:53:47;18.50;90.90
11836;DHT22;5977;51.972;7.640;2023-11-21T13:56:19;18.60;90.90
11836;DHT22;5977;51.972;7.640;2023-11-21T13:58:51;18.50;90.90
11836;DHT22;5977;51.972;7.640;2023-11-21T14:01:22;18.50;90.80
11836;DHT22;5977;51.972;7.640;2023-11-21T14:04:12;18.50;90.80
11836;DHT22;5977;51.972;7.640;2023-11-21T14:06:48;18.50;90.80
11836;DHT22;5977;51.972;7.640;2023-11-21T14:09:23;18.50;90.70
11836;DHT22;5977;51.972;7.640;2023-11-21T14:11:53;18.50;90.70
11836;DHT22;5977;51.972;7.640;2023-11-21T14:14:24;18.50;90.70
11836;DHT22;5977;51.972;7.640;2023-11-21T14:16:52;18.50;90.60
11836;DHT22;5977;51.972;7.640;2023-11-21T14:19:22;18.50;90.60
11836;DHT22;5977;51.972;7.640;2023-11-21T14:21:54;18.50;90.60
11836;DHT22;5977;51.972;7.640;2023-11-21T14:24:23;18.50;90.50
11836;DHT22;5977;51.972;7.640;2023-11-21T14:26:52;18.50;90.40
11836;DHT22;5977;51.972;7.640;2023-11-21T14:29:20;18.60;90.50
11836;DHT22;5977;51.972;7.640;2023-11-21T14:31:50;18.50;90.40
11836;DHT22;5977;51.972;7.640;2023-11-21T14:34:20;18.50;90.40
11836;DHT22;5977;51.972;7.640;2023-11-21T14:36:49;18.50;90.40
11836;DHT22;5977;51.972;7.640;2023-11-21T14:39:17;18.50;90.40
11836;DHT22;5977;51.972;7.640;2023-11-21T14:41:53;18.50;90.40
11836;DHT22;5977;51.972;7.640;2023-11-21T14:44:23;18.50;90.40
11836;DHT22;5977;51.972;7.640;2023-11-21T14:46:53;18.50;90.40
11836;DHT22;5977;51.972;7.640;2023-11-21T14:49:25;18.50;90.30
11836;DHT22;5977;51.972;7.640;2023-11-21T14:51:55;18.60;90.40
11836;DHT22;5977;51.972;7.640;2023-11-21T14:54:27;18.50;90.40
11836;DHT22;5977;51.972;7.640;2023-11-21T14:57:09;18.50;90.30
11836;DHT22;5977;51.972;7.640;2023-11-21T14:59:43;18.50;90.30
11836;DHT22;5977;51.972;7.640;2023-11-21T15:02:14;18.50;90.30
11836;DHT22;5977;51.972;7.640;2023-11-21T15:04:42;18.50;90.30
11836;DHT22;5977;51.972;7.640;2023-11-21T15:07:10;18.50;90.30
11836;DHT22;5977;51.972;7.640;2023-11-21T15:09:38;18.50;90.20
11836;DHT22;5977;51.972;7.640;2023-11-21T15:12:11;18.50;90.20
11836;DHT22;5977;51.972;7.640;2023-11-21T15:14:43;18.50;90.20
11836;DHT22;5977;51.972;7.640;2023-11-21T15:17:12;18.50;90.20
11836;DHT22;5977;51.972;7.640;2023-11-21T15:19:46;18.50;90.20
11836;DHT22;5977;51.972;7.640;2023-11-21T15:22:14;18.50;90.20
11836;DHT22;5977;51.972;7.640;2023-11-21T15:24:42;18.50;90.20
11836;DHT22;5977;51.972;7.640;2023-11-21T15:27:15;18.50;90.20
11836;DHT22;5977;51.972;7.640;2023-11-21T15:29:43;18.50;90.20
11836;DHT22;5977;51.972;7.640;2023-11-21T15:32:12;18.50;90.10
11836;DHT22;5977;51.972;7.640;2023-11-21T15:34:40;18.50;90.10
11836;DHT22;5977;51.972;7.640;2023-11-21T15:37:08;18.50;90.10
11836;DHT22;5977;51.972;7.640;2023-11-21T15:39:38;18.50;90.10
11836;DHT22;5977;51.972;7.640;2023-11-21T15:42:06;18.40;90.10
11836;DHT22;5977;51.972;7.640;2023-11-21T15:44:38;18.50;90.10
11836;DHT22;5977;51.972;7.640;2023-11-21T15:47:09;18.50;90.10
11836;DHT22;5977;51.972;7.640;2023-11-21T15:49:39;18.50;90.10
11836;DHT22;5977;51.972;7.640;2023-11-21T15:52:07;18.50;90.40
11836;DHT22;5977;51.972;7.640;2023-11-21T15:54:40;18.40;90.00
11836;DHT22;5977;51.972;7.640;2023-11-21T15:57:08;18.50;90.00
11836;DHT22;5977;51.972;7.640;2023-11-21T15:59:39;18.40;90.00
11836;DHT22;5977;51.972;7.640;2023-11-21T16:02:09;18.40;90.00
11836;DHT22;5977;51.972;7.640;2023-11-21T16:04:39;18.50;90.00
11836;DHT22;5977;51.972;7.640;2023-11-21T16:07:08;18.50;90.00
11836;DHT22;5977;51.972;7.640;2023-11-21T16:09:37;18.50;90.00
11836;DHT22;5977;51.972;7.640;2023-11-21T16:12:07;18.50;90.00
11836;DHT22;5977;51.972;7.640;2023-11-21T16:14:36;18.50;90.00
11836;DHT22;5977;51.972;7.640;2023-11-21T16:17:10;18.50;90.10
11836;DHT22;5977;51.972;7.640;2023-11-21T16:19:38;18.50;90.10
11836;DHT22;5977;51.972;7.640;2023-11-21T16:22:06;18.50;90.10
11836;DHT22;5977;51.972;7.640;2023-11-21T16:24:34;18.50;90.10
11836;DHT22;5977;51.972;7.640;2023-11-21T16:27:03;18.50;90.10
11836;DHT22;5977;51.972;7.640;2023-11-21T16:29:33;18.50;90.10
11836;DHT22;5977;51.972;7.640;2023-11-21T16:32:01;18.50;90.00